Time;durP1;ratioP1;P1;durP2;ratioP2;P2;SDS_P1;SDS_P2;PMS_P1;PMS_P2;Temp;Humidity;BMP_temperature;BMP_pressure;BME280_temperature;BME280_humidity;BME280_pressure;Samples;Min_cycle;Max_cycle;Signal;HPM_P1;HPM_P2
2023/05/08 00:00:47;;;;;;;5.65;5.15;;;;;;;13.89;51.68;94024.00;4957638;28;20488;-80
2023/05/08 00:03:12;;;;;;;6.80;5.10;;;;;;;13.89;51.55;94007.19;4961786;28;20959;-81
2023/05/08 00:05:40;;;;;;;7.47;6.25;;;;;;;13.89;51.46;94007.97;4972252;28;20073;-79
2023/05/08 00:08:06;;;;;;;6.03;5.40;;;;;;;13.88;51.73;94017.13;4959276;28;20034;-81
2023/05/08 00:10:31;;;;;;;6.25;5.53;;;;;;;13.93;51.86;94040.97;4957885;28;20414;-80
2023/05/08 00:12:57;;;;;;;6.03;5.43;;;;;;;13.83;51.97;94021.88;4960453;28;20031;-81
2023/05/08 00:15:22;;;;;;;7.43;5.45;;;;;;;13.96;51.79;94040.31;4957527;28;20500;-80
2023/05/08 00:17:48;;;;;;;6.43;5.47;;;;;;;13.75;52.09;94018.94;4956252;28;20043;-82
2023/05/08 00:20:13;;;;;;;5.90;5.25;;;;;;;13.97;51.75;94046.44;4961178;28;20131;-82
2023/05/08 00:22:38;;;;;;;7.72;6.10;;;;;;;13.84;52.04;94042.91;4957295;28;20594;-81
2023/05/08 00:25:04;;;;;;;6.35;5.72;;;;;;;13.77;52.04;94028.53;4956984;28;20038;-82
2023/05/08 00:27:30;;;;;;;10.52;4.80;;;;;;;13.82;52.04;94039.03;4956055;28;20557;-81
2023/05/08 00:29:56;;;;;;;6.15;5.55;;;;;;;13.88;52.01;94043.06;4956847;28;20046;-81
2023/05/08 00:32:22;;;;;;;6.28;5.68;;;;;;;13.81;52.01;94056.94;4956629;28;20030;-82
2023/05/08 00:34:48;;;;;;;11.98;5.95;;;;;;;13.49;52.15;93999.66;4975776;28;20159;-81
2023/05/08 00:37:13;;;;;;;8.57;6.13;;;;;;;13.74;52.23;94036.09;4975748;28;20039;-81
2023/05/08 00:39:38;;;;;;;6.88;5.60;;;;;;;13.74;52.36;94038.75;4966407;28;20076;-82
2023/05/08 00:42:04;;;;;;;7.07;5.60;;;;;;;13.78;52.27;94038.13;4978364;28;20117;-81
2023/05/08 00:44:30;;;;;;;5.95;5.45;;;;;;;13.60;52.42;94027.56;4985554;28;20031;-80
2023/05/08 00:46:55;;;;;;;11.82;5.85;;;;;;;13.58;52.74;94028.97;4977700;28;20296;-80
2023/05/08 00:49:21;;;;;;;7.00;5.78;;;;;;;13.52;52.76;94031.06;4966062;28;20046;-82
2023/05/08 00:51:49;;;;;;;7.57;6.55;;;;;;;13.73;52.56;94052.47;4964450;28;20061;-81
2023/05/08 00:54:16;;;;;;;7.75;5.82;;;;;;;13.69;52.68;94049.63;4986218;28;20104;-81
2023/05/08 00:56:42;;;;;;;12.55;5.93;;;;;;;13.56;52.77;94037.31;4976372;28;20117;-81
2023/05/08 00:59:10;;;;;;;9.35;6.28;;;;;;;13.66;52.51;94044.97;4979178;28;20026;-81
2023/05/08 01:01:36;;;;;;;7.80;5.57;;;;;;;13.60;52.75;94048.16;4976799;28;20042;-82
2023/05/08 01:04:05;;;;;;;6.75;5.55;;;;;;;13.72;52.39;94058.91;4977444;28;20832;-80
2023/05/08 01:06:31;;;;;;;7.57;5.85;;;;;;;13.67;52.38;94054.53;4974824;28;20042;-82
2023/05/08 01:08:56;;;;;;;9.70;6.05;;;;;;;13.61;52.65;94053.16;4976246;28;20077;-81
2023/05/08 01:11:30;;;;;;;5.97;5.40;;;;;;;13.67;52.60;94064.44;4974373;28;20041;-82
2023/05/08 01:13:56;;;;;;;6.77;6.07;;;;;;;13.57;52.83;94057.56;4992634;28;20155;-81
2023/05/08 01:16:36;;;;;;;8.10;6.10;;;;;;;13.56;52.95;94060.56;4975643;28;20793;-80
2023/05/08 01:19:14;;;;;;;8.65;5.90;;;;;;;13.61;52.91;94066.53;4973375;28;20045;-80
2023/05/08 01:21:53;;;;;;;9.07;6.20;;;;;;;13.71;52.57;94066.16;4991220;28;20042;-82
2023/05/08 01:24:37;;;;;;;6.10;5.50;;;;;;;13.69;52.66;94062.25;4977714;28;20038;-82
2023/05/08 01:27:02;;;;;;;9.25;6.28;;;;;;;13.71;52.27;94060.81;4967501;28;20049;-81
2023/05/08 01:29:54;;;;;;;7.75;5.75;;;;;;;13.64;52.37;94055.19;4975431;28;20029;-81
2023/05/08 01:32:23;;;;;;;8.05;5.45;;;;;;;13.64;52.29;94060.53;4976145;28;20676;-80
2023/05/08 01:35:02;;;;;;;6.07;5.13;;;;;;;13.62;52.21;94041.38;4977505;28;20069;-81
2023/05/08 01:37:46;;;;;;;11.38;6.15;;;;;;;13.58;52.46;94056.47;4992295;28;20045;-80
2023/05/08 01:40:24;;;;;;;6.28;5.68;;;;;;;13.45;52.61;94046.81;4977689;28;20548;-80
2023/05/08 01:43:04;;;;;;;7.63;5.65;;;;;;;13.52;52.79;94052.44;4975439;28;20037;-81
2023/05/08 01:45:39;;;;;;;7.63;5.97;;;;;;;13.43;53.01;94038.34;4975259;28;20034;-80
2023/05/08 01:48:09;;;;;;;6.97;5.57;;;;;;;13.42;53.20;94049.34;4977261;28;20442;-81
2023/05/08 01:50:41;;;;;;;10.95;6.95;;;;;;;13.26;53.08;94027.75;4977252;28;20692;-79
2023/05/08 01:53:22;;;;;;;5.60;5.10;;;;;;;13.31;53.37;94040.94;4978157;28;20823;-82
2023/05/08 01:55:50;;;;;;;7.80;6.68;;;;;;;13.28;53.24;94039.69;4974739;28;20085;-82
2023/05/08 01:58:16;;;;;;;7.15;6.28;;;;;;;13.32;53.01;94043.28;4974431;28;21006;-82
2023/05/08 02:00:43;;;;;;;8.52;5.97;;;;;;;13.31;53.36;94035.59;4976103;28;20312;-81
2023/05/08 02:03:12;;;;;;;7.28;5.72;;;;;;;13.25;52.85;94034.22;4978632;28;20558;-80
2023/05/08 02:05:39;;;;;;;12.98;5.50;;;;;;;13.33;52.92;94044.06;4976478;28;20033;-81
2023/05/08 02:08:07;;;;;;;12.07;6.15;;;;;;;13.25;52.70;94043.00;4974475;28;20361;-80
2023/05/08 02:10:34;;;;;;;7.07;5.00;;;;;;;13.19;53.04;94027.50;4972492;28;20030;-80
2023/05/08 02:13:01;;;;;;;6.05;5.45;;;;;;;13.24;53.20;94046.81;4976605;28;20042;-81
2023/05/08 02:15:30;;;;;;;7.13;5.65;;;;;;;13.14;53.57;94033.03;4976678;28;20073;-82
2023/05/08 02:17:57;;;;;;;9.38;6.20;;;;;;;13.14;53.75;94041.03;4975320;28;20038;-81
2023/05/08 02:20:25;;;;;;;6.78;5.75;;;;;;;13.07;53.58;94024.75;4974724;28;20030;-81
2023/05/08 02:22:51;;;;;;;7.40;5.57;;;;;;;13.02;53.39;94014.25;4973509;28;20751;-81
2023/05/08 02:25:18;;;;;;;6.25;5.60;;;;;;;13.23;53.32;94044.44;4976925;28;20046;-82
2023/05/08 02:27:46;;;;;;;6.38;5.78;;;;;;;13.11;53.11;94025.66;4972692;28;20303;-82
2023/05/08 02:30:14;;;;;;;6.75;5.68;;;;;;;13.27;53.16;94046.16;4974045;28;20046;-80
2023/05/08 02:32:43;;;;;;;5.65;5.03;;;;;;;13.29;53.01;94049.28;4963404;28;20022;-81
2023/05/08 02:35:15;;;;;;;7.35;5.70;;;;;;;13.18;53.28;94029.41;4974587;28;20635;-81
2023/05/08 02:37:46;;;;;;;8.98;5.65;;;;;;;13.22;53.26;94038.31;4971010;28;20610;-81
2023/05/08 02:40:14;;;;;;;6.47;5.32;;;;;;;13.14;53.16;94030.38;4977061;28;20041;-82
2023/05/08 02:42:40;;;;;;;9.43;5.70;;;;;;;13.22;52.99;94027.63;4972936;28;20157;-81
2023/05/08 02:45:07;;;;;;;5.70;4.97;;;;;;;13.25;52.86;94044.91;4976478;28;20048;-81
2023/05/08 02:47:41;;;;;;;9.10;6.07;;;;;;;13.23;53.20;94047.91;4973075;28;20489;-82
2023/05/08 02:50:17;;;;;;;7.97;5.85;;;;;;;13.16;53.56;94034.25;4978956;28;20097;-81
2023/05/08 02:53:09;;;;;;;10.90;6.03;;;;;;;13.36;53.31;94053.31;4975336;28;20741;-82
2023/05/08 02:55:49;;;;;;;6.13;5.35;;;;;;;13.30;53.27;94056.16;4970655;28;20050;-80
2023/05/08 02:58:23;;;;;;;10.73;5.75;;;;;;;13.11;53.49;94034.44;4975139;28;20125;-81
2023/05/08 03:00:58;;;;;;;7.43;5.43;;;;;;;13.06;53.39;94044.53;4974576;28;20061;-81
2023/05/08 03:03:26;;;;;;;8.40;5.65;;;;;;;13.17;53.44;94053.75;4974751;28;20044;-81
2023/05/08 03:05:58;;;;;;;6.05;5.03;;;;;;;12.88;53.53;94011.81;4972963;28;20137;-81
2023/05/08 03:08:29;;;;;;;7.05;5.38;;;;;;;13.17;53.46;94056.41;4973315;28;20062;-81
2023/05/08 03:10:58;;;;;;;6.82;5.80;;;;;;;13.13;53.19;94039.47;4990881;28;20455;-81
2023/05/08 03:13:27;;;;;;;6.35;5.10;;;;;;;12.96;53.26;94018.97;4962364;28;20356;-81
2023/05/08 03:16:03;;;;;;;6.85;5.25;;;;;;;13.31;53.48;94060.41;4973501;28;20027;-81
2023/05/08 03:18:41;;;;;;;7.78;5.60;;;;;;;13.22;52.58;94043.66;4989810;28;20412;-80
2023/05/08 03:21:09;;;;;;;7.22;5.00;;;;;;;13.23;52.56;94049.78;4972015;28;20044;-80
2023/05/08 03:23:37;;;;;;;8.05;5.00;;;;;;;13.15;52.72;94037.28;4975074;28;20144;-78
2023/05/08 03:26:03;;;;;;;8.02;5.90;;;;;;;13.13;52.89;94045.59;4973075;28;20034;-80
2023/05/08 03:28:31;;;;;;;6.13;5.53;;;;;;;13.03;53.01;94042.50;4974823;28;20045;-80
2023/05/08 03:30:58;;;;;;;6.68;5.13;;;;;;;13.16;52.92;94070.88;4970907;28;20038;-79
2023/05/08 03:33:25;;;;;;;10.07;5.50;;;;;;;12.95;53.88;94057.47;4975002;28;20042;-79
2023/05/08 03:35:52;;;;;;;7.68;5.55;;;;;;;13.10;53.62;94066.84;4978180;28;20166;-80
2023/05/08 03:38:18;;;;;;;5.82;5.13;;;;;;;12.97;53.79;94057.94;4980891;28;20880;-80
2023/05/08 03:40:44;;;;;;;7.40;5.63;;;;;;;12.86;54.34;94054.81;4979550;28;20022;-80
2023/05/08 03:43:10;;;;;;;6.15;4.95;;;;;;;12.84;54.48;94046.38;4978857;28;20034;-81
2023/05/08 03:45:39;;;;;;;6.40;5.45;;;;;;;13.09;54.39;94067.94;4981849;28;20149;-81
2023/05/08 03:48:06;;;;;;;5.60;4.93;;;;;;;13.04;54.32;94060.88;4971782;28;20085;-81
2023/05/08 03:50:34;;;;;;;6.15;5.55;;;;;;;13.06;54.25;94063.22;4982111;28;20554;-82
2023/05/08 03:53:00;;;;;;;9.05;5.10;;;;;;;13.12;54.25;94069.94;4984358;28;20045;-82
2023/05/08 03:55:26;;;;;;;7.03;5.10;;;;;;;12.73;54.26;94015.81;4980531;28;20561;-81
2023/05/08 03:58:03;;;;;;;6.88;4.75;;;;;;;13.03;54.51;94053.97;4980468;28;20053;-81
2023/05/08 04:00:53;;;;;;;6.03;5.40;;;;;;;13.34;53.40;94077.69;4996251;28;20365;-81
2023/05/08 04:03:55;;;;;;;7.57;5.35;;;;;;;13.37;52.68;94076.25;4977696;28;20077;-83
2023/05/08 04:06:46;;;;;;;8.77;5.65;;;;;;;13.37;51.85;94074.38;4995976;28;20136;-81
2023/05/08 04:09:15;;;;;;;7.45;5.82;;;;;;;13.45;51.78;94076.19;4978960;28;20038;-82
2023/05/08 04:11:45;;;;;;;8.00;5.68;;;;;;;13.48;51.74;94078.22;4994833;28;20042;-79
2023/05/08 04:14:16;;;;;;;5.93;5.35;;;;;;;13.58;51.65;94087.75;4980058;28;20046;-80
2023/05/08 04:16:48;;;;;;;9.50;5.88;;;;;;;13.68;51.53;94088.19;4980388;28;20250;-81
2023/05/08 04:19:24;;;;;;;8.20;6.75;;;;;;;13.75;51.55;94088.44;4979477;28;20046;-80
2023/05/08 04:21:50;;;;;;;7.88;5.50;;;;;;;13.68;51.04;94069.47;4981391;28;20049;-80
2023/05/08 04:24:16;;;;;;;16.63;6.32;;;;;;;13.67;51.42;94077.81;4979184;28;20043;-80
2023/05/08 04:26:43;;;;;;;10.68;5.50;;;;;;;13.83;51.09;94099.41;4979515;28;20041;-80
2023/05/08 04:29:09;;;;;;;7.28;5.78;;;;;;;13.81;50.71;94090.91;4995725;28;20046;-78
2023/05/08 04:31:36;;;;;;;11.65;6.43;;;;;;;13.89;50.80;94092.72;4982871;28;20032;-78
2023/05/08 04:34:02;;;;;;;13.00;7.50;;;;;;;13.59;52.71;94100.81;4976191;28;20295;-81
2023/05/08 04:36:30;;;;;;;11.25;6.75;;;;;;;13.68;52.71;94090.06;4971825;28;20038;-80
2023/05/08 04:38:55;;;;;;;7.90;6.80;;;;;;;13.49;52.66;94039.72;4978283;28;20096;-80
2023/05/08 04:41:21;;;;;;;10.82;7.57;;;;;;;13.52;52.36;94079.16;4979959;28;20021;-80
2023/05/08 04:43:47;;;;;;;11.75;6.53;;;;;;;13.95;52.22;94092.22;4984918;28;20050;-80
2023/05/08 04:46:12;;;;;;;6.43;5.82;;;;;;;14.05;51.31;94080.34;4976856;28;20058;-80
2023/05/08 04:48:38;;;;;;;10.75;7.25;;;;;;;14.38;49.93;94081.13;4978022;28;20048;-80
2023/05/08 04:51:03;;;;;;;12.15;6.40;;;;;;;14.49;49.47;94073.47;4977089;28;20042;-80
2023/05/08 04:53:28;;;;;;;14.40;6.72;;;;;;;14.27;50.51;94071.19;4977924;28;20580;-80
2023/05/08 04:55:54;;;;;;;11.48;7.45;;;;;;;14.30;50.58;94075.88;4979506;28;20026;-80
2023/05/08 04:58:19;;;;;;;9.00;6.43;;;;;;;14.14;51.67;94056.97;4973410;28;20046;-80
2023/05/08 05:00:45;;;;;;;9.55;6.53;;;;;;;14.39;50.44;94071.22;4989003;28;20503;-81
2023/05/08 05:03:10;;;;;;;12.95;6.25;;;;;;;14.44;50.47;94069.13;4977156;28;20529;-80
2023/05/08 05:05:36;;;;;;;10.50;7.03;;;;;;;14.44;50.25;94065.66;4976460;28;20169;-79
2023/05/08 05:08:03;;;;;;;11.63;6.85;;;;;;;14.57;49.66;94061.91;4975932;28;20022;-79
2023/05/08 05:10:28;;;;;;;11.55;6.82;;;;;;;14.75;49.45;94071.34;4977525;28;20080;-80
2023/05/08 05:12:53;;;;;;;10.48;6.43;;;;;;;14.63;49.48;94041.06;4975531;28;21001;-80
2023/05/08 05:15:19;;;;;;;17.55;7.75;;;;;;;14.42;50.19;94051.84;4994871;28;20057;-80
2023/05/08 05:17:44;;;;;;;9.30;6.50;;;;;;;14.58;49.12;94056.25;4973985;28;20042;-80
2023/05/08 05:20:10;;;;;;;11.77;7.38;;;;;;;14.52;50.31;94057.53;4978992;28;20439;-80
2023/05/08 05:22:35;;;;;;;12.65;6.32;;;;;;;14.34;51.31;94066.84;4973183;28;20035;-80
2023/05/08 05:25:01;;;;;;;11.43;7.78;;;;;;;14.60;50.50;94032.59;4976169;28;20509;-81
2023/05/08 05:27:26;;;;;;;9.32;6.50;;;;;;;14.87;49.90;94041.88;4973362;28;20074;-80
2023/05/08 05:29:52;;;;;;;16.60;7.65;;;;;;;14.70;51.08;94062.72;4976720;28;20050;-80
2023/05/08 05:32:17;;;;;;;8.80;7.68;;;;;;;14.35;51.17;94057.72;4975621;28;20297;-80
2023/05/08 05:34:43;;;;;;;10.60;6.97;;;;;;;14.35;50.70;94055.03;4979300;28;20987;-80
2023/05/08 05:37:08;;;;;;;12.80;7.70;;;;;;;14.68;50.70;94054.25;4975230;28;20501;-82
2023/05/08 05:39:35;;;;;;;71.32;46.78;;;;;;;15.07;48.95;94066.22;4978544;28;20041;-80
2023/05/08 05:42:00;;;;;;;62.78;44.92;;;;;;;15.23;48.39;94054.50;4977390;28;20072;-79
2023/05/08 05:44:25;;;;;;;61.67;45.25;;;;;;;15.44;48.22;94057.88;4976431;28;20145;-81
2023/05/08 05:46:51;;;;;;;36.28;25.45;;;;;;;15.32;48.23;94060.53;4971665;28;20396;-80
2023/05/08 05:49:16;;;;;;;27.60;18.77;;;;;;;15.50;47.51;94066.44;4976304;28;20047;-80
2023/05/08 05:51:42;;;;;;;15.70;12.40;;;;;;;15.42;47.81;94062.75;4977432;28;20705;-80
2023/05/08 05:54:07;;;;;;;22.92;18.23;;;;;;;15.24;47.79;94064.09;4979111;28;20039;-81
2023/05/08 05:56:32;;;;;;;26.80;21.02;;;;;;;15.40;48.49;94054.25;4973738;28;20029;-80
2023/05/08 05:58:58;;;;;;;18.73;14.35;;;;;;;14.63;50.00;94057.91;4971359;28;20027;-80
2023/05/08 06:01:23;;;;;;;21.15;13.63;;;;;;;15.07;49.68;94048.25;4975020;28;20033;-80
2023/05/08 06:03:49;;;;;;;15.90;9.30;;;;;;;14.57;49.87;94033.25;4976682;28;20034;-80
2023/05/08 06:06:14;;;;;;;6.43;5.75;;;;;;;14.19;51.36;94054.09;4974529;28;20130;-80
2023/05/08 06:08:40;;;;;;;12.00;7.20;;;;;;;14.40;51.17;94054.06;4973472;28;20922;-80
2023/05/08 06:11:05;;;;;;;8.45;7.00;;;;;;;14.68;50.30;94043.53;4976301;28;20018;-81
2023/05/08 06:13:31;;;;;;;10.35;6.60;;;;;;;14.47;50.83;94039.00;4972348;28;20054;-79
2023/05/08 06:15:56;;;;;;;12.15;6.03;;;;;;;14.58;50.67;94048.22;4974815;28;20393;-79
2023/05/08 06:18:22;;;;;;;8.55;5.45;;;;;;;15.07;48.50;94028.72;4977830;28;20053;-79
2023/05/08 06:20:47;;;;;;;9.40;6.68;;;;;;;15.54;48.21;94037.88;4971704;28;20371;-80
2023/05/08 06:23:13;;;;;;;8.98;5.95;;;;;;;15.54;47.91;94042.44;4979095;28;20029;-80
2023/05/08 06:25:39;;;;;;;5.95;5.03;;;;;;;15.63;48.41;94022.44;4974794;28;20584;-81
2023/05/08 06:28:06;;;;;;;8.82;5.57;;;;;;;15.64;48.23;94039.28;4973353;28;20038;-80
2023/05/08 06:30:32;;;;;;;7.03;5.57;;;;;;;14.92;48.29;94017.56;4972991;28;20829;-79
2023/05/08 06:32:57;;;;;;;10.32;6.50;;;;;;;15.52;48.07;94044.66;4977153;28;20669;-79
2023/05/08 06:35:23;;;;;;;6.50;5.53;;;;;;;16.17;46.98;94046.16;4974126;28;20034;-80
2023/05/08 06:37:48;;;;;;;7.95;5.20;;;;;;;15.40;48.04;94032.81;4976669;28;20038;-81
2023/05/08 06:40:14;;;;;;;6.30;5.63;;;;;;;15.03;48.61;94004.50;4971766;28;20798;-80
2023/05/08 06:42:40;;;;;;;14.18;5.80;;;;;;;15.44;49.23;94028.38;4975747;28;20145;-81
2023/05/08 06:45:06;;;;;;;8.63;5.60;;;;;;;15.90;47.14;94021.66;4972447;28;20157;-78
2023/05/08 06:47:32;;;;;;;13.50;5.80;;;;;;;15.74;47.70;94046.88;4972316;28;20019;-75
2023/05/08 06:49:57;;;;;;;10.52;5.47;;;;;;;15.95;47.00;94044.00;4976219;28;20026;-79
2023/05/08 06:52:24;;;;;;;18.08;6.80;;;;;;;16.51;45.52;94045.56;4973542;28;20133;-80
2023/05/08 06:54:50;;;;;;;10.48;5.80;;;;;;;16.81;45.07;94045.16;4975529;28;20416;-81
2023/05/08 06:57:15;;;;;;;7.15;5.47;;;;;;;16.76;45.56;94038.13;4977099;28;20044;-80
2023/05/08 06:59:41;;;;;;;8.10;5.95;;;;;;;16.88;43.91;94043.41;4975494;28;20571;-80
2023/05/08 07:02:08;;;;;;;12.00;5.68;;;;;;;16.69;44.65;94032.59;4976219;28;20130;-80
2023/05/08 07:04:34;;;;;;;10.57;6.57;;;;;;;16.74;44.40;94045.75;4978744;28;20029;-81
2023/05/08 07:06:59;;;;;;;9.57;6.00;;;;;;;16.71;45.26;94035.72;4973700;28;20088;-80
2023/05/08 07:09:24;;;;;;;8.75;5.68;;;;;;;16.69;45.40;94059.44;4976133;28;20038;-80
2023/05/08 07:11:50;;;;;;;16.35;7.10;;;;;;;16.39;46.24;94036.78;4972594;28;20085;-79
2023/05/08 07:14:15;;;;;;;6.90;5.80;;;;;;;16.93;43.70;94053.91;4974500;28;20318;-80
2023/05/08 07:16:41;;;;;;;6.70;5.50;;;;;;;16.59;46.00;94057.25;4974951;28;20034;-80
2023/05/08 07:19:06;;;;;;;13.90;6.90;;;;;;;16.71;45.84;94062.56;4976802;28;20576;-80
2023/05/08 07:21:31;;;;;;;9.77;7.50;;;;;;;16.46;45.57;94056.56;4976983;28;20064;-80
2023/05/08 07:23:57;;;;;;;10.57;8.20;;;;;;;16.25;46.31;94051.38;4973010;28;20037;-80
2023/05/08 07:26:22;;;;;;;11.48;8.93;;;;;;;16.54;46.40;94052.13;4978120;28;20069;-79
2023/05/08 07:28:49;;;;;;;10.93;8.10;;;;;;;16.97;44.70;94037.84;4977456;28;20046;-79
2023/05/08 07:31:15;;;;;;;10.00;8.35;;;;;;;17.25;43.72;94062.00;4975847;28;20039;-79
2023/05/08 07:33:40;;;;;;;15.95;7.57;;;;;;;17.09;44.36;94035.88;4970897;28;20045;-80
2023/05/08 07:36:06;;;;;;;12.65;8.32;;;;;;;17.23;44.67;94054.25;4975413;28;20050;-80
2023/05/08 07:38:31;;;;;;;13.70;8.55;;;;;;;16.37;46.05;94055.16;4973613;28;20038;-81
2023/05/08 07:40:58;;;;;;;13.48;9.63;;;;;;;16.30;45.77;94059.19;4973633;28;20030;-80
2023/05/08 07:43:23;;;;;;;14.00;8.95;;;;;;;16.50;45.22;94043.22;4975199;28;20097;-80
2023/05/08 07:45:49;;;;;;;11.02;8.57;;;;;;;16.94;45.26;94049.31;4975806;28;20049;-82
2023/05/08 07:48:14;;;;;;;11.63;9.40;;;;;;;17.18;45.71;94060.69;4975882;28;20450;-80
2023/05/08 07:50:40;;;;;;;12.07;9.25;;;;;;;17.35;44.37;94064.16;4975547;28;20026;-79
2023/05/08 07:53:05;;;;;;;13.50;9.48;;;;;;;17.16;44.67;94052.19;4974778;28;20030;-80
2023/05/08 07:55:31;;;;;;;13.40;8.13;;;;;;;17.33;44.34;94044.88;4973687;28;20034;-80
2023/05/08 07:57:57;;;;;;;13.60;7.68;;;;;;;17.36;44.45;94065.69;4976836;28;20052;-81
2023/05/08 08:00:26;;;;;;;11.30;7.50;;;;;;;16.83;43.90;94067.84;4974390;28;20124;-80
2023/05/08 08:02:51;;;;;;;10.82;6.45;;;;;;;17.02;43.48;94076.00;4975594;28;20194;-80
2023/05/08 08:05:17;;;;;;;16.73;9.05;;;;;;;16.68;44.80;94082.81;4975130;28;20022;-79
2023/05/08 08:07:42;;;;;;;9.68;6.20;;;;;;;16.51;45.87;94059.00;4975920;28;20038;-80
2023/05/08 08:10:08;;;;;;;11.68;5.45;;;;;;;16.70;45.93;94077.13;4972334;28;20828;-82
2023/05/08 08:12:33;;;;;;;11.60;4.72;;;;;;;16.84;44.21;94082.06;4976260;28;20035;-80
2023/05/08 08:14:59;;;;;;;11.48;4.85;;;;;;;16.35;45.75;94060.06;4976192;28;20101;-81
2023/05/08 08:17:24;;;;;;;20.48;5.60;;;;;;;16.70;45.44;94069.06;4963068;28;20117;-81
2023/05/08 08:19:50;;;;;;;6.20;4.82;;;;;;;17.15;44.73;94071.38;4976423;28;20080;-79
2023/05/08 08:22:15;;;;;;;10.85;6.15;;;;;;;16.96;44.26;94036.31;4978683;28;20340;-82
2023/05/08 08:24:41;;;;;;;6.20;5.03;;;;;;;16.94;45.92;94066.22;4978441;28;20038;-81
2023/05/08 08:27:07;;;;;;;9.10;4.95;;;;;;;17.29;45.00;94063.63;4977640;28;20038;-80
2023/05/08 08:29:32;;;;;;;8.93;5.70;;;;;;;16.84;45.74;94061.34;4977588;28;20390;-82
2023/05/08 08:31:58;;;;;;;7.20;5.45;;;;;;;16.33;47.36;94070.38;4976685;28;20022;-81
2023/05/08 08:34:23;;;;;;;11.45;5.57;;;;;;;16.92;46.48;94046.97;4993831;28;20622;-80
2023/05/08 08:36:49;;;;;;;10.63;4.93;;;;;;;17.27;46.30;94059.72;4973449;28;20026;-80
2023/05/08 08:39:14;;;;;;;6.10;5.00;;;;;;;17.00;46.17;94046.03;4983429;28;20039;-80
2023/05/08 08:41:40;;;;;;;7.97;6.18;;;;;;;16.70;47.27;94034.94;4976426;28;20508;-81
2023/05/08 08:44:05;;;;;;;11.15;5.93;;;;;;;16.75;47.26;94037.34;4978282;28;20478;-82
2023/05/08 08:46:34;;;;;;;9.10;5.75;;;;;;;17.14;46.45;94016.84;4979109;28;20042;-82
2023/05/08 08:49:03;;;;;;;7.13;5.07;;;;;;;16.95;47.11;94008.69;4979502;28;20318;-81
2023/05/08 08:51:36;;;;;;;6.10;5.20;;;;;;;17.37;47.53;94019.63;4978783;28;20042;-81
2023/05/08 08:54:12;;;;;;;11.48;5.85;;;;;;;17.12;48.02;94024.41;4976920;28;20043;-82
2023/05/08 08:56:41;;;;;;;9.55;6.78;;;;;;;17.29;48.57;94030.59;4977352;28;20034;-82
2023/05/08 08:59:07;;;;;;;13.75;5.70;;;;;;;17.54;47.98;94018.47;4993830;28;20034;-81
2023/05/08 09:01:37;;;;;;;13.82;5.70;;;;;;;17.73;47.90;94025.78;4976483;28;20054;-80
2023/05/08 09:04:04;;;;;;;7.22;5.20;;;;;;;17.67;46.99;94014.53;4981879;28;20484;-82
2023/05/08 09:06:29;;;;;;;7.68;5.55;;;;;;;17.96;47.01;94008.63;4978467;28;20461;-77
2023/05/08 09:08:56;;;;;;;7.72;5.25;;;;;;;18.16;45.62;94014.00;4980588;28;20122;-78
2023/05/08 09:11:22;;;;;;;11.77;5.15;;;;;;;17.97;46.02;93991.34;4978632;28;20018;-80
2023/05/08 09:13:48;;;;;;;8.85;5.65;;;;;;;18.06;46.62;93995.72;4983434;28;20057;-79
2023/05/08 09:16:13;;;;;;;7.78;4.97;;;;;;;18.10;46.63;93999.25;4982809;28;20049;-80
2023/05/08 09:18:39;;;;;;;16.90;9.50;;;;;;;17.86;46.55;93978.78;4982683;28;20045;-80
2023/05/08 09:21:07;;;;;;;10.90;7.15;;;;;;;17.22;47.94;93973.97;4979973;28;20038;-79
2023/05/08 09:23:34;;;;;;;8.18;5.93;;;;;;;17.04;48.49;93976.25;4980498;28;20109;-80
2023/05/08 09:26:00;;;;;;;12.82;6.32;;;;;;;17.03;48.91;93988.91;4994122;28;20033;-79
2023/05/08 09:28:26;;;;;;;12.63;6.28;;;;;;;16.78;49.71;93982.16;4981699;28;20031;-79
2023/05/08 09:30:56;;;;;;;8.15;6.07;;;;;;;16.37;50.44;93958.53;4974431;28;20046;-79
2023/05/08 09:33:25;;;;;;;17.95;8.82;;;;;;;16.09;51.11;93988.81;4979583;28;20236;-79
2023/05/08 09:35:50;;;;;;;15.68;11.05;;;;;;;15.97;51.68;93951.34;4991522;28;20492;-78
2023/05/08 09:38:51;;;;;;;9.63;7.30;;;;;;;16.38;52.39;93985.00;4981521;28;20232;-80
2023/05/08 09:41:16;;;;;;;8.95;6.03;;;;;;;16.29;50.98;93973.63;4978909;28;20137;-79
2023/05/08 09:43:43;;;;;;;9.15;6.72;;;;;;;16.66;50.97;94006.44;4979174;28;20153;-79
2023/05/08 09:46:23;;;;;;;10.35;6.68;;;;;;;17.24;49.32;93993.22;4980234;28;20092;-79
2023/05/08 09:48:50;;;;;;;10.90;6.90;;;;;;;17.12;48.84;93989.47;4977197;28;20591;-79
2023/05/08 09:51:16;;;;;;;11.27;6.38;;;;;;;17.44;48.31;94013.66;4983940;28;20053;-79
2023/05/08 09:53:41;;;;;;;8.02;5.93;;;;;;;17.74;48.13;94012.00;4980357;28;20528;-78
2023/05/08 09:56:06;;;;;;;7.90;6.50;;;;;;;17.70;47.98;93984.22;4978758;28;20222;-80
2023/05/08 09:58:42;;;;;;;7.10;5.90;;;;;;;18.07;47.41;94019.59;4983370;28;20034;-79
2023/05/08 10:01:27;;;;;;;13.75;6.75;;;;;;;18.01;46.39;94005.66;4977543;28;20630;-79
2023/05/08 10:03:52;;;;;;;14.48;7.15;;;;;;;17.72;48.16;93987.34;4983724;28;20088;-79
2023/05/08 10:06:20;;;;;;;8.55;6.65;;;;;;;17.61;47.35;94002.47;4981058;28;20137;-80
2023/05/08 10:08:45;;;;;;;11.38;7.47;;;;;;;18.14;46.86;93992.81;4979878;28;20081;-79
2023/05/08 10:11:16;;;;;;;12.23;6.45;;;;;;;17.98;47.15;94000.22;4979265;28;20107;-80
2023/05/08 10:13:45;;;;;;;7.93;7.13;;;;;;;18.01;47.34;94007.56;4976286;28;20581;-79
2023/05/08 10:16:16;;;;;;;9.45;6.30;;;;;;;17.93;47.26;94006.66;4982180;28;20480;-79
2023/05/08 10:18:48;;;;;;;9.90;6.15;;;;;;;17.88;47.17;94000.75;4983593;28;20125;-78
2023/05/08 10:21:15;;;;;;;10.85;6.88;;;;;;;17.71;47.41;93991.16;4978438;28;20042;-79
2023/05/08 10:23:41;;;;;;;13.38;7.15;;;;;;;18.19;47.96;93991.75;4981892;28;20045;-80
2023/05/08 10:26:15;;;;;;;10.10;6.75;;;;;;;18.43;46.76;93957.19;4977768;28;20029;-80
2023/05/08 10:28:40;;;;;;;11.65;7.30;;;;;;;18.58;46.16;93979.75;4981396;28;20113;-80
2023/05/08 10:31:06;;;;;;;10.65;6.40;;;;;;;18.28;47.14;93978.84;4978394;28;20242;-79
2023/05/08 10:33:34;;;;;;;9.13;6.40;;;;;;;17.83;47.79;93974.91;4978515;28;20467;-79
2023/05/08 10:36:00;;;;;;;7.88;6.35;;;;;;;18.68;47.09;93973.75;4977842;28;20045;-79
2023/05/08 10:38:26;;;;;;;8.35;6.80;;;;;;;18.93;45.69;93946.47;4980253;28;20620;-80
2023/05/08 10:40:56;;;;;;;6.55;5.93;;;;;;;19.23;45.38;93950.78;4981714;28;20558;-80
2023/05/08 10:43:23;;;;;;;11.48;6.93;;;;;;;19.43;45.21;93954.13;4978389;28;20593;-80
2023/05/08 10:45:51;;;;;;;8.48;6.25;;;;;;;19.47;45.36;93956.91;4979101;28;20038;-79
2023/05/08 10:48:20;;;;;;;8.18;6.22;;;;;;;19.04;45.19;93958.97;4972520;28;20233;-79
2023/05/08 10:51:07;;;;;;;7.72;6.13;;;;;;;19.02;45.75;93957.78;4974865;28;20105;-80
2023/05/08 10:53:38;;;;;;;7.70;5.85;;;;;;;19.41;45.17;93951.00;4977106;28;20434;-79
2023/05/08 10:56:04;;;;;;;9.75;6.70;;;;;;;19.47;45.00;93930.72;4980329;28;20027;-80
2023/05/08 10:58:31;;;;;;;8.75;6.25;;;;;;;19.42;45.01;93941.78;4982898;28;20046;-79
2023/05/08 11:01:00;;;;;;;7.28;5.80;;;;;;;19.19;46.00;93943.78;4980883;28;20040;-79
2023/05/08 11:03:27;;;;;;;8.50;5.65;;;;;;;18.97;45.40;93921.13;4981263;28;20069;-79
2023/05/08 11:05:53;;;;;;;12.38;6.45;;;;;;;19.20;46.07;93934.56;4985851;28;20097;-79
2023/05/08 11:08:22;;;;;;;7.00;6.30;;;;;;;19.18;46.07;93934.13;4981736;28;20444;-79
2023/05/08 11:11:12;;;;;;;8.68;6.55;;;;;;;19.13;45.17;93934.44;4979517;28;20608;-79
2023/05/08 11:13:45;;;;;;;7.47;6.13;;;;;;;19.28;45.48;93910.03;4964360;28;20095;-79
2023/05/08 11:16:10;;;;;;;6.78;6.05;;;;;;;19.38;45.78;93908.59;4978115;28;20049;-78
2023/05/08 11:18:36;;;;;;;12.05;5.85;;;;;;;19.67;44.32;93905.13;4980556;28;20452;-80
2023/05/08 11:21:14;;;;;;;6.85;6.00;;;;;;;19.02;44.63;93898.50;4979970;28;20062;-79
2023/05/08 11:23:40;;;;;;;6.47;5.85;;;;;;;18.45;45.51;93906.44;4979545;28;20112;-80
2023/05/08 11:26:11;;;;;;;12.68;6.63;;;;;;;18.59;46.17;93911.28;4981235;28;20079;-79
2023/05/08 11:28:38;;;;;;;11.73;6.72;;;;;;;18.82;47.00;93903.22;4993526;28;20568;-80
2023/05/08 11:31:05;;;;;;;14.23;7.05;;;;;;;19.48;44.36;93902.59;4974277;28;20097;-81
2023/05/08 11:33:33;;;;;;;8.52;6.07;;;;;;;19.88;45.00;93898.44;4979053;28;20035;-79